createdAt,value
2022-08-22T12:28:31.898Z,0.40
2022-08-22T12:32:50.881Z,0.85
2022-08-22T13:04:32.488Z,0.10
2022-08-22T13:08:29.963Z,0.20
2022-08-22T13:12:28.881Z,0.20
2022-08-22T13:16:13.073Z,0.10
2022-08-22T13:20:09.858Z,0.10
2022-08-22T13:23:53.369Z,0.20
2022-08-22T13:27:41.053Z,0.17
2022-08-22T13:31:38.425Z,0.20
2022-08-22T13:35:34.465Z,0.20
2022-08-22T13:39:16.450Z,0.20
2022-08-22T13:43:04.669Z,0.40
2022-08-22T13:47:13.081Z,0.60
2022-08-22T13:51:01.135Z,0.50
2022-08-22T13:54:57.790Z,0.70
2022-08-22T13:58:45.113Z,0.77
2022-08-22T14:02:43.356Z,0.43
2022-08-22T14:07:06.473Z,0.28
2022-08-22T14:10:52.218Z,0.20
2022-08-22T14:14:38.832Z,0.30
2022-08-22T14:18:30.387Z,0.40
2022-08-22T14:22:17.176Z,0.40
2022-08-22T14:25:59.372Z,0.73
2022-08-22T14:30:01.517Z,0.80
2022-08-22T14:33:51.131Z,0.50
2022-08-22T14:37:39.043Z,0.43
2022-08-22T14:41:26.656Z,0.20
2022-08-22T14:45:10.497Z,0.10
2022-08-22T14:49:28.841Z,0.20
2022-08-22T14:56:54.190Z,0.55
2022-08-22T15:00:40.951Z,0.43
2022-08-22T15:04:38.046Z,0.90
2022-08-22T15:08:27.539Z,0.45
2022-08-22T15:12:29.381Z,0.80
2022-08-22T15:16:35.611Z,0.40
2022-08-22T15:20:35.633Z,1.00
2022-08-22T15:24:18.522Z,0.73
2022-08-22T15:28:05.079Z,0.90
2022-08-22T15:31:51.115Z,0.45
2022-08-22T15:35:33.483Z,0.30
2022-08-22T15:39:30.775Z,0.60
2022-08-22T15:43:35.044Z,0.30
2022-08-22T15:47:32.884Z,0.30
2022-08-22T15:51:37.766Z,0.40
2022-08-22T15:55:24.689Z,0.40
2022-08-22T15:59:20.338Z,0.30
2022-08-22T16:03:05.056Z,0.40
2022-08-22T16:06:50.695Z,0.20
2022-08-22T16:10:35.132Z,0.60
2022-08-22T16:14:45.231Z,0.65
2022-08-22T16:18:39.897Z,0.35
2022-08-22T16:22:21.762Z,0.35
2022-08-22T16:26:03.597Z,0.40
2022-08-22T16:29:46.051Z,0.60
2022-08-22T16:33:35.398Z,0.28
2022-08-22T16:37:44.010Z,0.20
2022-08-22T16:41:44.246Z,0.20
2022-08-22T16:45:44.668Z,0.20
2022-08-22T16:49:30.572Z,0.20
2022-08-22T16:53:21.465Z,0.20
2022-08-22T16:57:07.719Z,0.30
2022-08-22T17:00:58.035Z,0.30
2022-08-22T17:04:59.261Z,0.20
2022-08-22T17:09:14.546Z,0.93
2022-08-22T17:13:20.540Z,0.30
2022-08-22T17:17:27.150Z,0.95
2022-08-22T17:21:17.634Z,0.40
2022-08-22T17:25:24.173Z,0.45
2022-08-22T17:29:23.329Z,0.63
2022-08-22T17:33:11.049Z,0.40
2022-08-22T17:37:30.711Z,0.60
2022-08-22T17:41:19.387Z,0.77
2022-08-22T17:45:12.388Z,0.50
2022-08-22T17:49:11.292Z,0.68
2022-08-22T17:53:27.827Z,0.82
2022-08-22T17:57:23.512Z,0.70
2022-08-22T18:01:13.576Z,0.80
2022-08-22T18:05:19.510Z,0.90
2022-08-22T18:09:14.923Z,0.80
2022-08-22T18:13:12.546Z,0.75
2022-08-22T18:16:54.846Z,0.50
2022-08-22T18:21:00.834Z,1.42
2022-08-22T18:25:01.590Z,1.33
2022-08-22T18:28:54.892Z,1.30
2022-08-22T18:33:08.255Z,1.63
2022-08-22T18:37:12.812Z,1.30
2022-08-22T18:40:54.741Z,1.40
2022-08-22T18:44:37.534Z,1.38
2022-08-22T18:48:54.462Z,1.63
2022-08-22T18:52:41.787Z,1.65
2022-08-22T18:56:41.605Z,1.25
2022-08-22T19:00:39.133Z,0.75
2022-08-22T19:04:24.392Z,1.02
2022-08-22T19:08:36.905Z,1.20
2022-08-22T19:12:37.530Z,1.63
2022-08-22T19:16:41.903Z,1.52
2022-08-22T19:21:03.609Z,1.92
2022-08-22T19:25:18.362Z,1.83
2022-08-22T19:29:10.733Z,2.03
2022-08-22T19:32:59.015Z,2.05
2022-08-22T19:40:50.238Z,1.50
2022-08-22T19:44:42.345Z,2.08
2022-08-22T19:48:33.371Z,2.55
2022-08-22T19:52:49.091Z,2.30
2022-08-22T19:57:10.197Z,2.53
2022-08-22T20:00:53.611Z,2.50
2022-08-22T20:04:54.997Z,2.60
2022-08-22T20:08:53.975Z,2.90
2022-08-22T20:13:05.727Z,3.25
2022-08-22T20:17:33.989Z,3.40
2022-08-22T20:21:55.532Z,3.15
2022-08-22T20:25:51.934Z,2.90
2022-08-22T20:29:35.007Z,3.70
2022-08-22T20:33:41.112Z,3.20
2022-08-22T20:37:44.973Z,3.25
2022-08-22T20:41:42.966Z,3.80
2022-08-22T20:45:24.969Z,3.72
2022-08-22T20:49:24.464Z,3.65
2022-08-22T20:53:16.888Z,5.07
2022-08-22T20:57:01.407Z,4.88
2022-08-22T21:00:45.567Z,5.18
2022-08-22T21:04:28.426Z,25.33
2022-08-22T21:08:26.471Z,13.50
2022-08-22T21:12:09.456Z,5.57
2022-08-22T21:15:56.957Z,6.18
2022-08-22T21:19:38.762Z,7.13
2022-08-22T21:23:20.663Z,6.80
2022-08-22T21:27:02.447Z,6.90
2022-08-22T21:30:48.394Z,6.68
2022-08-22T21:34:31.827Z,7.40
2022-08-22T21:38:16.559Z,8.13
2022-08-22T21:42:01.384Z,7.47
2022-08-22T21:45:43.767Z,7.65
2022-08-22T21:49:27.943Z,8.20
2022-08-22T21:53:16.682Z,8.48
2022-08-22T21:57:19.568Z,8.38
2022-08-22T22:01:02.958Z,7.35
2022-08-22T22:04:46.457Z,6.80
2022-08-22T22:08:29.261Z,7.28
2022-08-22T22:12:13.279Z,8.65
2022-08-22T22:15:55.241Z,7.80
2022-08-22T22:19:37.186Z,8.35
2022-08-22T22:23:19.658Z,8.45
2022-08-22T22:27:02.004Z,8.05
2022-08-22T22:30:44.227Z,8.27
2022-08-22T22:34:26.047Z,8.73
2022-08-22T22:38:08.189Z,9.07
2022-08-22T22:41:49.999Z,9.70
2022-08-22T22:45:31.803Z,9.93
2022-08-22T22:49:13.784Z,9.85
2022-08-22T22:52:55.672Z,10.35
2022-08-22T22:56:37.449Z,10.23
2022-08-22T23:00:20.151Z,11.23
2022-08-22T23:04:05.601Z,9.10
2022-08-22T23:07:47.835Z,8.15
2022-08-22T23:11:30.217Z,7.50
2022-08-22T23:15:12.405Z,7.03
2022-08-22T23:18:54.541Z,6.38
2022-08-22T23:22:36.352Z,7.28
2022-08-22T23:26:18.297Z,7.03
2022-08-22T23:30:00.168Z,6.97
2022-08-22T23:33:42.453Z,3.88
2022-08-22T23:37:24.329Z,4.38
2022-08-22T23:41:09.817Z,9.43
2022-08-22T23:44:51.939Z,4.47
2022-08-22T23:48:33.793Z,4.20
2022-08-22T23:52:15.650Z,4.22
2022-08-22T23:55:59.208Z,3.50
2022-08-22T23:59:46.393Z,2.83
